PANO2: Poteau River At Panama

Data processed at Mon Apr 23 2018 21:32


All information presented herein is the property of the government of the United States of America and may be revised or deleted at any time without prior notice.
Dissemination of this information without the expressed written consent of the Public Affairs Office, Tulsa District U.S. Army Corps of Engineers is strictly prohibited.
These data are gathered electronically and, as presented, have not undergone any form of quality control. These data are not guaranteed to be valid or correct.
Go to home page.
Go to station list.

Upstream stations:

Downstream station:
Previous Day
Next Day
Current Day
    
SHEF ID:       PANO2     Poteau River near Panama, OK
STATION TYPE:  

               PRECIP     STAGE  RIV-FLOW  BAT-LOAD
                   in        ft       cfs      volt
              Ccp-Rev   Ccp-Rev   Ccp-Rev   Ccp-Rev
(US/Central)
04/23 00:00      0.00     11.09      1475     12.73
04/23 01:00      0.00     11.05      1463     12.73
04/23 02:00      0.01     11.00      1448     12.73
04/23 03:00      0.00     10.97      1439     12.73
04/23 04:00      0.00     10.93      1428     12.73
04/23 05:00      0.00     10.89      1416     12.73
04/23 06:00      0.00     10.84      1401     12.73
04/23 07:00      0.00     10.81      1393     12.73
04/23 08:00      0.00     10.77      1381     12.73
04/23 09:00      0.00     10.73      1370     12.97
04/23 10:00      0.00     10.69      1358     12.97
04/23 11:00      0.00     10.64      1344     13.21
04/23 12:00      0.00     10.59      1330     13.37
04/23 13:00      0.00     10.54      1315     13.44
04/23 14:00      0.00     10.51      1307     13.44
04/23 15:00      0.00     10.46      1293     13.37
04/23 16:00      0.00     10.41      1279     13.21
04/23 17:00      0.00     10.36      1265     13.13
04/23 18:00      0.00     10.31      1251     13.05
04/23 19:00      0.00     10.25      1234     13.05
04/23 20:00      0.00     10.21      1223     13.05
04/23 21:00      ----      ----      ----      ----
04/23 22:00      ----      ----      ----      ----
04/23 23:00      ----      ----      ----      ----